createdAt,value
2022-11-19T00:01:26.055Z,5.60
2022-11-19T00:03:53.506Z,5.60
2022-11-19T00:06:24.879Z,5.60
2022-11-19T00:08:51.892Z,5.70
2022-11-19T00:11:45.729Z,5.60
2022-11-19T00:14:14.500Z,5.60
2022-11-19T00:16:41.719Z,5.60
2022-11-19T00:19:10.428Z,5.60
2022-11-19T00:21:37.179Z,5.50
2022-11-19T00:24:04.076Z,5.50
2022-11-19T00:26:30.986Z,5.50
2022-11-19T00:28:57.787Z,5.40
2022-11-19T00:31:24.830Z,5.40
2022-11-19T00:33:54.300Z,5.40
2022-11-19T00:36:22.073Z,5.40
2022-11-19T00:38:48.865Z,5.30
2022-11-19T00:41:15.644Z,5.30
2022-11-19T00:43:48.867Z,5.30
2022-11-19T00:46:22.197Z,5.30
2022-11-19T00:48:50.532Z,5.30
2022-11-19T00:51:19.397Z,5.30
2022-11-19T00:53:46.740Z,5.20
2022-11-19T00:56:15.936Z,5.20
2022-11-19T00:58:43.693Z,5.20
2022-11-19T01:01:11.878Z,5.20
2022-11-19T01:03:40.366Z,5.20
2022-11-19T01:06:08.835Z,5.10
2022-11-19T01:08:36.539Z,5.10
2022-11-19T01:11:09.533Z,5.10
2022-11-19T01:13:37.209Z,5.00
2022-11-19T01:16:07.679Z,5.00
2022-11-19T01:18:36.151Z,4.90
2022-11-19T01:21:03.830Z,4.90
2022-11-19T01:23:30.642Z,4.90
2022-11-19T01:25:57.431Z,4.90
2022-11-19T01:28:24.249Z,4.90
2022-11-19T01:30:51.279Z,4.90
2022-11-19T01:33:18.096Z,4.90
2022-11-19T01:35:53.885Z,4.90
2022-11-19T01:38:20.604Z,4.80
2022-11-19T01:40:47.344Z,4.80
2022-11-19T01:43:14.132Z,4.90
2022-11-19T01:45:43.842Z,4.90
2022-11-19T01:48:26.607Z,4.80
2022-11-19T01:50:57.277Z,4.80
2022-11-19T01:53:27.396Z,4.80
2022-11-19T01:55:56.156Z,4.70
2022-11-19T01:58:25.028Z,4.80
2022-11-19T02:00:51.798Z,4.80
2022-11-19T02:03:19.356Z,4.80
2022-11-19T02:05:46.729Z,4.70
2022-11-19T02:08:36.811Z,4.70
2022-11-19T02:11:25.319Z,4.70
2022-11-19T02:14:00.815Z,4.70
2022-11-19T02:16:36.268Z,4.60
2022-11-19T02:19:26.375Z,4.60
2022-11-19T02:22:15.617Z,4.60
2022-11-19T02:25:11.542Z,4.60
2022-11-19T02:28:16.217Z,4.50
2022-11-19T02:30:48.111Z,4.50
2022-11-19T02:33:34.438Z,4.50
2022-11-19T02:36:09.685Z,4.50
2022-11-19T02:38:39.266Z,4.50
2022-11-19T02:41:36.203Z,4.50
2022-11-19T02:44:45.067Z,4.50
2022-11-19T02:47:18.730Z,4.50
2022-11-19T02:49:46.565Z,4.50
2022-11-19T02:52:17.577Z,4.50
2022-11-19T02:54:44.491Z,4.50
2022-11-19T02:57:12.932Z,4.40
2022-11-19T03:00:19.366Z,4.40
2022-11-19T03:03:14.753Z,4.40
2022-11-19T03:05:49.335Z,4.40
2022-11-19T03:08:16.288Z,4.30
2022-11-19T03:10:54.941Z,4.30
2022-11-19T03:13:44.083Z,4.30
2022-11-19T03:16:42.492Z,4.30
2022-11-19T03:19:18.739Z,4.30
2022-11-19T03:22:05.857Z,4.30
2022-11-19T03:24:37.309Z,4.20
2022-11-19T03:27:09.630Z,4.20
2022-11-19T03:29:41.413Z,4.20
2022-11-19T03:32:14.414Z,4.10
2022-11-19T03:34:43.183Z,4.10
2022-11-19T03:37:11.408Z,4.10
2022-11-19T03:39:38.728Z,4.10
2022-11-19T03:42:09.994Z,4.10
2022-11-19T03:44:41.901Z,4.10
2022-11-19T03:47:13.399Z,4.10
2022-11-19T03:49:43.916Z,4.10
2022-11-19T03:52:15.116Z,4.10
2022-11-19T03:54:42.610Z,4.00
2022-11-19T03:57:12.393Z,4.00
2022-11-19T03:59:39.284Z,4.00
2022-11-19T04:02:11.587Z,4.00
2022-11-19T04:04:38.909Z,4.00
2022-11-19T04:07:14.851Z,4.00
2022-11-19T04:09:42.412Z,4.00
2022-11-19T04:12:15.673Z,4.00
2022-11-19T04:14:42.390Z,3.90
2022-11-19T04:17:09.438Z,3.90
2022-11-19T04:19:36.433Z,3.90
2022-11-19T04:22:03.723Z,3.90
2022-11-19T04:24:30.645Z,3.90
2022-11-19T04:26:57.656Z,3.80
2022-11-19T04:29:24.405Z,3.80
2022-11-19T04:31:51.181Z,3.80
2022-11-19T04:34:17.886Z,3.80
2022-11-19T04:36:45.691Z,3.80
2022-11-19T04:39:12.632Z,3.80
2022-11-19T04:41:40.660Z,3.80
2022-11-19T04:44:07.695Z,3.80
2022-11-19T04:46:35.932Z,3.80
2022-11-19T04:49:02.811Z,3.80
2022-11-19T04:51:29.592Z,3.80
2022-11-19T04:53:56.461Z,3.80
2022-11-19T04:56:23.239Z,3.80
2022-11-19T04:58:50.036Z,3.70
2022-11-19T05:01:16.995Z,3.70
2022-11-19T05:03:43.792Z,3.70
2022-11-19T05:06:10.561Z,3.70
2022-11-19T05:08:37.332Z,3.60
2022-11-19T05:11:04.288Z,3.60
2022-11-19T05:13:31.339Z,3.70
2022-11-19T05:15:58.081Z,3.60
2022-11-19T05:18:25.124Z,3.60
2022-11-19T05:20:52.045Z,3.60
2022-11-19T05:23:18.783Z,3.60
2022-11-19T05:25:45.568Z,3.60
2022-11-19T05:28:12.745Z,3.50
2022-11-19T05:30:39.580Z,3.50
2022-11-19T05:33:06.357Z,3.50
2022-11-19T05:35:33.178Z,3.50
2022-11-19T05:38:00.044Z,3.40
2022-11-19T05:40:26.840Z,3.50
2022-11-19T05:42:53.601Z,3.40
2022-11-19T05:45:20.725Z,3.40
2022-11-19T05:47:48.917Z,3.40
2022-11-19T05:50:16.346Z,3.40
2022-11-19T05:52:43.116Z,3.40
2022-11-19T05:55:09.895Z,3.40
2022-11-19T05:57:37.054Z,3.40
2022-11-19T06:00:05.137Z,3.40
2022-11-19T06:02:39.329Z,3.40
2022-11-19T06:05:06.601Z,3.30
2022-11-19T06:07:33.456Z,3.30
2022-11-19T06:10:00.282Z,3.30
2022-11-19T06:12:27.017Z,3.30
2022-11-19T06:14:53.782Z,3.30
2022-11-19T06:17:20.507Z,3.30
2022-11-19T06:19:47.227Z,3.30
2022-11-19T06:22:14.004Z,3.20
2022-11-19T06:24:40.750Z,3.20
2022-11-19T06:27:07.546Z,3.20
2022-11-19T06:29:34.685Z,3.20
2022-11-19T06:32:01.461Z,3.20
2022-11-19T06:34:28.203Z,3.10
2022-11-19T06:36:54.949Z,3.20
2022-11-19T06:39:22.086Z,3.20
2022-11-19T06:41:49.119Z,3.20
2022-11-19T06:44:15.902Z,3.20
2022-11-19T06:46:42.682Z,3.20
2022-11-19T06:49:11.434Z,3.20
2022-11-19T06:51:40.215Z,3.20
2022-11-19T06:54:07.001Z,3.10
2022-11-19T06:56:34.062Z,3.20
2022-11-19T06:59:00.831Z,3.10
2022-11-19T07:01:27.642Z,3.10
2022-11-19T07:03:54.416Z,3.20
2022-11-19T07:06:21.436Z,3.20
2022-11-19T07:08:48.615Z,3.20
2022-11-19T07:11:27.315Z,3.20
2022-11-19T07:13:58.396Z,3.20
2022-11-19T07:16:37.455Z,3.20
2022-11-19T07:19:06.446Z,3.20
2022-11-19T07:21:33.963Z,3.20
2022-11-19T07:24:02.802Z,3.20
2022-11-19T07:26:32.194Z,3.20
2022-11-19T07:29:05.092Z,3.20
2022-11-19T07:31:33.106Z,3.20
2022-11-19T07:34:00.551Z,3.20
2022-11-19T07:36:27.784Z,3.20
2022-11-19T07:38:54.604Z,3.10
2022-11-19T07:41:39.847Z,3.10
2022-11-19T07:44:06.700Z,3.10
2022-11-19T07:46:33.605Z,3.10
2022-11-19T07:49:00.408Z,3.10
2022-11-19T07:51:27.512Z,3.10
2022-11-19T07:53:56.425Z,3.10
2022-11-19T07:56:24.338Z,3.10
2022-11-19T07:58:51.660Z,3.10
2022-11-19T08:01:24.048Z,3.10
2022-11-19T08:03:56.234Z,3.10
2022-11-19T08:06:26.361Z,3.00
2022-11-19T08:08:54.985Z,3.00
2022-11-19T08:11:22.629Z,3.00
2022-11-19T08:13:49.426Z,3.00
2022-11-19T08:16:36.019Z,3.00
2022-11-19T08:19:11.377Z,3.00
2022-11-19T08:21:43.253Z,3.00
2022-11-19T08:24:11.026Z,3.00
2022-11-19T08:26:38.503Z,3.00
2022-11-19T08:29:05.980Z,3.10
2022-11-19T08:31:32.876Z,3.10
2022-11-19T08:34:01.753Z,3.10
2022-11-19T08:36:28.618Z,3.10
2022-11-19T08:39:00.273Z,3.10
2022-11-19T08:41:45.942Z,3.10
2022-11-19T08:44:13.239Z,3.10
2022-11-19T08:46:41.084Z,3.00
2022-11-19T08:49:08.195Z,3.00
2022-11-19T08:51:35.288Z,3.00
2022-11-19T08:54:01.997Z,3.00
2022-11-19T08:56:28.791Z,3.00
2022-11-19T08:58:58.570Z,2.90
2022-11-19T09:01:26.672Z,2.90
2022-11-19T09:03:53.363Z,2.80
2022-11-19T09:06:20.101Z,2.80
2022-11-19T09:08:46.844Z,2.80
2022-11-19T09:11:15.986Z,2.80
2022-11-19T09:13:42.909Z,2.80
2022-11-19T09:16:10.787Z,2.80
2022-11-19T09:18:39.160Z,2.80
2022-11-19T09:21:07.907Z,2.80
2022-11-19T09:23:34.983Z,2.80
2022-11-19T09:26:08.456Z,2.80
2022-11-19T09:28:35.961Z,2.70
2022-11-19T09:31:05.795Z,2.80
2022-11-19T09:33:34.972Z,2.80
2022-11-19T09:36:01.995Z,2.70
2022-11-19T09:38:31.463Z,2.70
2022-11-19T09:41:10.675Z,2.70
2022-11-19T09:44:15.015Z,2.70
2022-11-19T09:47:14.157Z,2.70
2022-11-19T09:49:51.604Z,2.80
2022-11-19T09:52:21.247Z,2.80
2022-11-19T09:54:55.583Z,2.80
2022-11-19T09:57:50.707Z,2.80
2022-11-19T10:00:21.794Z,2.80
2022-11-19T10:02:48.959Z,2.80
2022-11-19T10:05:21.771Z,2.80
2022-11-19T10:08:13.059Z,2.80
2022-11-19T10:10:42.933Z,2.80
2022-11-19T10:13:24.236Z,2.80
2022-11-19T10:15:56.992Z,2.90
2022-11-19T10:18:47.461Z,2.90
2022-11-19T10:21:17.192Z,3.00
2022-11-19T10:24:19.639Z,3.00
2022-11-19T10:27:01.095Z,3.00
2022-11-19T10:29:34.323Z,3.00
2022-11-19T10:32:27.126Z,3.00
2022-11-19T10:34:58.642Z,3.00
2022-11-19T10:37:31.750Z,3.10
2022-11-19T10:40:12.248Z,3.10
2022-11-19T10:42:43.137Z,3.20
2022-11-19T10:45:21.557Z,3.20
2022-11-19T10:48:08.913Z,3.30
2022-11-19T10:50:36.486Z,3.30
2022-11-19T10:53:17.927Z,3.30
2022-11-19T10:55:54.908Z,3.40
2022-11-19T10:58:42.671Z,3.40
2022-11-19T11:01:27.605Z,3.50
2022-11-19T11:04:11.663Z,3.50
2022-11-19T11:06:56.395Z,3.50
2022-11-19T11:09:41.184Z,3.60
2022-11-19T11:12:41.765Z,3.70
2022-11-19T11:15:14.394Z,3.70
2022-11-19T11:17:42.588Z,3.80
2022-11-19T11:20:18.335Z,3.90
2022-11-19T11:22:48.092Z,4.10
2022-11-19T11:25:25.764Z,4.50
2022-11-19T11:28:12.616Z,4.70
2022-11-19T11:31:03.933Z,5.10
2022-11-19T11:33:32.820Z,5.80
2022-11-19T11:36:04.683Z,6.30
2022-11-19T11:38:32.028Z,6.50
2022-11-19T11:41:53.405Z,6.50
2022-11-19T11:44:01.834Z,6.30
2022-11-19T11:46:40.487Z,6.20
2022-11-19T11:49:20.514Z,6.10
2022-11-19T11:51:55.032Z,5.90
2022-11-19T11:54:22.182Z,5.70
2022-11-19T11:56:48.947Z,5.50
2022-11-19T11:59:22.040Z,5.40
2022-11-19T12:02:03.433Z,5.40
2022-11-19T12:04:30.318Z,5.30
2022-11-19T12:07:02.835Z,5.30
2022-11-19T12:09:42.190Z,5.30
2022-11-19T12:12:19.173Z,5.20
2022-11-19T12:14:58.632Z,5.10
2022-11-19T12:17:49.714Z,5.10
2022-11-19T12:20:39.470Z,5.10
2022-11-19T12:23:21.320Z,5.10
2022-11-19T12:26:18.087Z,5.10
2022-11-19T12:28:51.479Z,5.00
2022-11-19T12:31:39.594Z,5.10
2022-11-19T12:34:18.043Z,5.10
2022-11-19T12:36:56.837Z,5.10
2022-11-19T12:39:53.464Z,5.10
2022-11-19T12:42:52.565Z,5.10
2022-11-19T12:45:39.623Z,5.00
2022-11-19T12:48:37.652Z,5.00
2022-11-19T12:51:13.361Z,5.00
2022-11-19T12:53:49.232Z,5.00
2022-11-19T12:56:34.321Z,5.00
2022-11-19T12:59:27.236Z,4.90
2022-11-19T13:01:55.243Z,4.90
2022-11-19T13:04:45.740Z,4.90
2022-11-19T13:07:17.721Z,4.90
2022-11-19T13:09:53.744Z,4.80
2022-11-19T13:12:22.794Z,4.80
2022-11-19T13:14:55.444Z,4.80
2022-11-19T13:17:27.811Z,4.80
2022-11-19T13:20:25.365Z,4.80
2022-11-19T13:22:57.376Z,4.80
2022-11-19T13:25:26.811Z,4.70
2022-11-19T13:27:56.674Z,4.70
2022-11-19T13:30:26.645Z,4.70
2022-11-19T13:33:12.533Z,4.70
2022-11-19T13:35:45.215Z,4.70
2022-11-19T13:38:25.712Z,4.80
2022-11-19T13:41:10.765Z,4.90
2022-11-19T13:43:56.290Z,4.90
2022-11-19T13:46:28.361Z,4.90
2022-11-19T13:49:05.162Z,4.90
2022-11-19T13:51:39.366Z,4.90
2022-11-19T13:54:09.437Z,4.90
2022-11-19T13:56:48.797Z,4.80
2022-11-19T13:59:29.077Z,4.90
2022-11-19T14:02:29.166Z,4.90
2022-11-19T14:05:09.996Z,4.90
2022-11-19T14:08:18.786Z,4.90
2022-11-19T14:10:56.974Z,4.80
2022-11-19T14:13:49.316Z,4.80
2022-11-19T14:16:52.169Z,4.80
2022-11-19T14:19:37.983Z,4.70
2022-11-19T14:22:52.944Z,4.70
2022-11-19T14:26:00.106Z,4.70
2022-11-19T14:28:50.744Z,4.70
2022-11-19T14:31:19.657Z,4.70
2022-11-19T14:33:49.329Z,4.70
2022-11-19T14:36:24.087Z,4.70
2022-11-19T14:38:55.353Z,4.60
2022-11-19T14:41:34.274Z,4.60
2022-11-19T14:44:08.230Z,4.60
2022-11-19T14:46:46.799Z,4.60
2022-11-19T14:49:21.077Z,4.50
2022-11-19T14:51:54.113Z,4.50
2022-11-19T14:54:34.070Z,4.50
2022-11-19T14:57:05.240Z,4.40
2022-11-19T14:59:36.340Z,4.40
2022-11-19T15:02:26.946Z,4.30
2022-11-19T15:05:02.801Z,4.30
2022-11-19T15:07:40.561Z,4.20
2022-11-19T15:10:10.183Z,4.10
2022-11-19T15:12:42.996Z,4.00
2022-11-19T15:15:24.755Z,3.90
2022-11-19T15:18:02.255Z,3.80
2022-11-19T15:20:38.818Z,3.70
2022-11-19T15:23:17.284Z,3.70
2022-11-19T15:26:21.398Z,3.60
2022-11-19T15:29:06.846Z,3.60
2022-11-19T15:32:10.523Z,3.60
2022-11-19T15:35:09.730Z,3.50
2022-11-19T15:38:01.777Z,3.50
2022-11-19T15:40:31.057Z,3.40
2022-11-19T15:43:03.547Z,3.30
2022-11-19T15:45:36.375Z,3.30
2022-11-19T15:48:19.364Z,3.30
2022-11-19T15:50:47.862Z,3.20
2022-11-19T15:53:23.658Z,3.20
2022-11-19T15:56:01.453Z,3.10
2022-11-19T15:58:38.137Z,3.10
2022-11-19T16:01:08.026Z,3.00
2022-11-19T16:03:38.397Z,3.00
2022-11-19T16:06:15.460Z,3.00
2022-11-19T16:08:44.666Z,2.90
2022-11-19T16:11:36.678Z,2.90
2022-11-19T16:14:22.128Z,2.90
2022-11-19T16:17:09.995Z,2.90
2022-11-19T16:19:36.851Z,2.90
2022-11-19T16:22:05.243Z,2.90
2022-11-19T16:24:50.639Z,2.80
2022-11-19T16:27:23.529Z,2.80
2022-11-19T16:29:50.737Z,2.80
2022-11-19T16:32:19.629Z,2.80
2022-11-19T16:34:46.687Z,2.80
2022-11-19T16:37:14.779Z,2.80
2022-11-19T16:39:43.304Z,2.80
2022-11-19T16:42:19.894Z,2.90
2022-11-19T16:44:49.067Z,2.80
2022-11-19T16:47:20.776Z,2.90
2022-11-19T16:49:50.549Z,2.90
2022-11-19T16:52:32.269Z,2.90
2022-11-19T16:55:00.138Z,2.90
2022-11-19T16:57:29.220Z,2.90
2022-11-19T17:00:01.743Z,2.90
2022-11-19T17:02:31.914Z,3.00
2022-11-19T17:05:08.764Z,2.90
2022-11-19T17:07:36.743Z,3.00
2022-11-19T17:10:12.515Z,3.00
2022-11-19T17:12:56.936Z,3.10
2022-11-19T17:15:34.993Z,3.10
2022-11-19T17:18:27.263Z,3.10
2022-11-19T17:21:08.842Z,3.10
2022-11-19T17:23:47.808Z,3.20
2022-11-19T17:26:21.460Z,3.20
2022-11-19T17:28:54.972Z,3.20
2022-11-19T17:31:24.002Z,3.10
2022-11-19T17:33:56.809Z,3.10
2022-11-19T17:36:27.882Z,3.00
2022-11-19T17:38:55.349Z,3.00
2022-11-19T17:41:44.041Z,2.90
2022-11-19T17:44:39.243Z,2.80
2022-11-19T17:47:24.589Z,2.80
2022-11-19T17:49:52.169Z,2.70
2022-11-19T17:52:28.663Z,2.60
2022-11-19T17:55:00.745Z,2.60
2022-11-19T17:57:27.763Z,2.50
2022-11-19T17:59:54.536Z,2.50
2022-11-19T18:02:21.627Z,2.40
2022-11-19T18:04:48.893Z,2.40
2022-11-19T18:07:16.197Z,2.30
2022-11-19T18:09:43.211Z,2.20
2022-11-19T18:12:15.377Z,2.20
2022-11-19T18:14:43.286Z,2.10
2022-11-19T18:17:12.178Z,2.10
2022-11-19T18:19:39.039Z,2.10
2022-11-19T18:22:06.422Z,2.00
2022-11-19T18:24:33.217Z,2.00
2022-11-19T18:27:00.012Z,2.00
2022-11-19T18:29:30.146Z,1.90
2022-11-19T18:31:57.031Z,1.80
2022-11-19T18:34:24.499Z,1.80
2022-11-19T18:36:51.359Z,1.80
2022-11-19T18:39:18.104Z,1.70
2022-11-19T18:41:45.035Z,1.70
2022-11-19T18:44:33.526Z,1.60
2022-11-19T18:47:02.064Z,1.60
2022-11-19T18:49:28.920Z,1.50
2022-11-19T18:51:55.715Z,1.50
2022-11-19T18:54:22.623Z,1.40
2022-11-19T18:56:49.376Z,1.40
2022-11-19T18:59:16.225Z,1.40
2022-11-19T19:01:43.118Z,1.30
2022-11-19T19:04:14.194Z,1.30
2022-11-19T19:06:41.747Z,1.20
2022-11-19T19:09:10.354Z,1.30
2022-11-19T19:11:59.990Z,1.20
2022-11-19T19:14:26.862Z,1.20
2022-11-19T19:16:53.817Z,1.20
2022-11-19T19:21:11.577Z,1.20
2022-11-19T19:22:48.670Z,1.10
2022-11-19T19:25:15.538Z,1.10
2022-11-19T19:27:42.371Z,1.00
2022-11-19T19:30:10.255Z,1.00
2022-11-19T19:32:37.303Z,1.00
2022-11-19T19:35:04.312Z,1.00
2022-11-19T19:37:31.087Z,1.00
2022-11-19T19:39:57.906Z,1.00
2022-11-19T19:42:24.729Z,0.90
2022-11-19T19:44:51.958Z,0.90
2022-11-19T19:47:18.735Z,0.90
2022-11-19T19:49:46.519Z,0.90
2022-11-19T19:52:13.223Z,0.80
2022-11-19T19:54:40.787Z,0.80
2022-11-19T19:57:07.513Z,0.80
2022-11-19T19:59:34.581Z,0.70
2022-11-19T20:02:01.378Z,0.70
2022-11-19T20:04:28.159Z,0.70
2022-11-19T20:06:55.027Z,0.70
2022-11-19T20:09:22.128Z,0.70
2022-11-19T20:11:48.947Z,0.60
2022-11-19T20:14:16.323Z,0.60
2022-11-19T20:16:43.164Z,0.60
2022-11-19T20:19:14.961Z,0.60
2022-11-19T20:25:24.438Z,0.50
2022-11-19T20:27:51.185Z,0.50
2022-11-19T20:30:18.004Z,0.50
2022-11-19T20:32:44.736Z,0.50
2022-11-19T20:35:11.450Z,0.40
2022-11-19T20:37:38.167Z,0.50
2022-11-19T20:40:05.404Z,0.40
2022-11-19T20:42:51.029Z,0.40
2022-11-19T20:45:17.790Z,0.40
2022-11-19T20:47:44.516Z,0.40
2022-11-19T20:50:11.237Z,0.40
2022-11-19T20:52:38.054Z,0.40
2022-11-19T20:55:06.916Z,0.40
2022-11-19T20:57:33.792Z,0.30
2022-11-19T21:00:00.590Z,0.30
2022-11-19T21:02:29.120Z,0.30
2022-11-19T21:04:57.159Z,0.30
2022-11-19T21:07:24.116Z,0.30
2022-11-19T21:09:51.163Z,0.30
2022-11-19T21:12:17.900Z,0.20
2022-11-19T21:14:44.805Z,0.20
2022-11-19T21:17:11.558Z,0.20
2022-11-19T21:19:38.381Z,0.20
2022-11-19T21:22:05.059Z,0.10
2022-11-19T21:24:31.824Z,0.10
2022-11-19T21:26:58.592Z,0.10
2022-11-19T21:29:25.308Z,0.10
2022-11-19T21:31:52.199Z,0.10
2022-11-19T21:34:22.877Z,0.00
2022-11-19T21:36:50.625Z,0.00
2022-11-19T21:39:18.347Z,0.00
2022-11-19T21:41:45.340Z,0.00
2022-11-19T21:44:16.536Z,0.00
2022-11-19T21:46:46.633Z,0.00
2022-11-19T21:49:13.332Z,0.00
2022-11-19T21:51:40.044Z,-0.10
2022-11-19T21:54:06.868Z,-0.10
2022-11-19T21:56:38.264Z,-0.10
2022-11-19T21:59:06.815Z,-0.10
2022-11-19T22:01:33.849Z,-0.10
2022-11-19T22:04:00.624Z,-0.20
2022-11-19T22:06:27.421Z,-0.20
2022-11-19T22:08:54.219Z,-0.20
2022-11-19T22:11:29.882Z,-0.20
2022-11-19T22:14:07.886Z,-0.30
2022-11-19T22:16:37.575Z,-0.20
2022-11-19T22:19:05.593Z,-0.30
2022-11-19T22:21:32.432Z,-0.30
2022-11-19T22:23:59.853Z,-0.30
2022-11-19T22:26:26.603Z,-0.30
2022-11-19T22:28:53.578Z,-0.30
2022-11-19T22:31:20.432Z,-0.30
2022-11-19T22:33:51.727Z,-0.30
2022-11-19T22:36:20.446Z,-0.30
2022-11-19T22:38:47.301Z,-0.40
2022-11-19T22:41:16.811Z,-0.30
2022-11-19T22:43:44.107Z,-0.40
2022-11-19T22:46:12.975Z,-0.40
2022-11-19T22:48:40.320Z,-0.40
2022-11-19T22:51:11.524Z,-0.40
2022-11-19T22:53:38.276Z,-0.50
2022-11-19T22:56:07.852Z,-0.50
2022-11-19T22:58:35.194Z,-0.50
2022-11-19T23:01:02.491Z,-0.50
2022-11-19T23:03:29.258Z,-0.50
2022-11-19T23:05:56.493Z,-0.60
2022-11-19T23:08:23.252Z,-0.60
2022-11-19T23:10:56.918Z,-0.60
2022-11-19T23:13:32.766Z,-0.60
2022-11-19T23:15:59.661Z,-0.60
2022-11-19T23:18:27.033Z,-0.70
2022-11-19T23:21:01.550Z,-0.70
2022-11-19T23:23:28.342Z,-0.70
2022-11-19T23:25:59.846Z,-0.70
2022-11-19T23:28:28.367Z,-0.70
2022-11-19T23:30:55.396Z,-0.80
2022-11-19T23:33:22.770Z,-0.80
2022-11-19T23:35:49.540Z,-0.80
2022-11-19T23:38:17.084Z,-0.80
2022-11-19T23:40:43.843Z,-0.80
2022-11-19T23:43:10.724Z,-0.90
2022-11-19T23:45:37.643Z,-0.90
2022-11-19T23:48:04.641Z,-0.90
2022-11-19T23:50:31.698Z,-0.90
2022-11-19T23:52:58.452Z,-0.90
2022-11-19T23:55:25.141Z,-1.00
2022-11-19T23:57:51.856Z,-1.00
